This is the latest recevied weather packets stored in our database for station/object IN3MWE-10. If no packets are shown the sender has not sent any weather packets the latest 10 day(s).
| Time | Temp. | Humidity | Pressure | Rain* | Wind** | Luminosity | Snow |
|---|---|---|---|---|---|---|---|
| 1787817016 | 27.22° C | 65% | 983.1 hPa | - | - | - | - |
| 1787816116 | 23.89° C | 80% | 983.4 hPa | - | - | - | - |
| 1787815216 | 23.89° C | 80% | 983.2 hPa | - | - | - | - |
| 1787814316 | 23.33° C | 83% | 983.3 hPa | - | - | - | - |
| 1787813416 | 23.89° C | 83% | 983.2 hPa | - | - | - | - |
| 1787812516 | 23.33° C | 87% | 983.1 hPa | - | - | - | - |
| 1787811615 | 22.78° C | 92% | 983.2 hPa | - | - | - | - |
| 1787810715 | 22.22° C | 95% | 983.1 hPa | - | - | - | - |
| 1787809815 | 22.22° C | 96% | 983.4 hPa | - | - | - | - |
| 1787808915 | 21.67° C | 99% | 983.5 hPa | - | - | - | - |
| 1787808015 | 21.11° C | 100% | 983.7 hPa | - | - | - | - |
| 1787807115 | 21.11° C | 100% | 983.4 hPa | - | - | - | - |
| 1787806215 | 21.11° C | 100% | 983.1 hPa | - | - | - | - |
| 1787805314 | 20.56° C | 100% | 983 hPa | - | - | - | - |
| 1787804414 | 20.56° C | 100% | 983.1 hPa | - | - | - | - |
| 1787803514 | 21.11° C | 100% | 983.2 hPa | - | - | - | - |
| 1787802614 | 20.56° C | 100% | 983 hPa | - | - | - | - |
| 1787801714 | 21.11° C | 100% | 982.9 hPa | - | - | - | - |
| 1787800814 | 21.11° C | 100% | 982.9 hPa | - | - | - | - |
| 1787799913 | 20.56° C | 100% | 982.9 hPa | - | - | - | - |
| 1787799028 | 21.11° C | 100% | 983 hPa | - | - | - | - |
| 1787798127 | 20.56° C | 100% | 982.9 hPa | - | - | - | - |
| 1787797227 | 21.11° C | 100% | 982.5 hPa | - | - | - | - |
| 1787796327 | 21.11° C | 100% | 982.3 hPa | - | - | - | - |
| 1787795427 | 21.67° C | 100% | 982.3 hPa | - | - | - | - |
* Rain since midnight (hover to see other rain measurements)
** Current wind speed in m/s (hover to see current wind gust speed)